Time;durP1;ratioP1;P1;durP2;ratioP2;P2;SDS_P1;SDS_P2;PMS_P1;PMS_P2;Temp;Humidity;BMP_temperature;BMP_pressure;BME280_temperature;BME280_humidity;BME280_pressure;Samples;Min_cycle;Max_cycle;Signal;HPM_P1;HPM_P2
2022/07/11 00:02:19;;;;;;;7.70;2.40;;;16.10;99.90;;;;;;5071713;28;20133;-57
2022/07/11 00:04:49;;;;;;;6.30;2.70;;;16.10;99.90;;;;;;5072150;28;20446;-57
2022/07/11 00:07:17;;;;;;;5.07;2.80;;;15.80;99.90;;;;;;5071866;28;20036;-57
2022/07/11 00:09:45;;;;;;;7.45;2.45;;;16.00;99.90;;;;;;5070473;28;20041;-57
2022/07/11 00:12:12;;;;;;;2.80;1.88;;;16.10;99.90;;;;;;5071775;28;20506;-57
2022/07/11 00:14:39;;;;;;;6.25;2.20;;;15.90;99.90;;;;;;5071625;28;20082;-57
2022/07/11 00:17:08;;;;;;;6.00;2.60;;;16.10;99.90;;;;;;5070460;28;20128;-57
2022/07/11 00:19:36;;;;;;;5.07;2.30;;;15.90;99.90;;;;;;5071534;28;20037;-56
2022/07/11 00:22:05;;;;;;;5.80;2.53;;;15.90;99.90;;;;;;5070570;28;20093;-56
2022/07/11 00:24:34;;;;;;;7.45;2.80;;;16.00;99.90;;;;;;5071565;28;20579;-57
2022/07/11 00:27:02;;;;;;;2.97;2.20;;;15.90;99.90;;;;;;5071544;28;20041;-57
2022/07/11 00:29:29;;;;;;;3.65;2.50;;;15.90;99.90;;;;;;5071601;28;20083;-56
2022/07/11 00:31:57;;;;;;;5.18;2.63;;;15.90;99.90;;;;;;5071816;28;20037;-56
2022/07/11 00:34:25;;;;;;;4.38;2.65;;;15.90;99.90;;;;;;5071690;28;20040;-56
2022/07/11 00:36:55;;;;;;;3.37;2.23;;;16.00;99.90;;;;;;5071236;28;20132;-56
2022/07/11 00:39:25;;;;;;;5.50;2.58;;;16.00;99.90;;;;;;5071551;28;20079;-58
2022/07/11 00:41:51;;;;;;;;;;;16.00;99.90;;;;;;5071607;28;20096;-56
2022/07/11 00:44:19;;;;;;;2.72;2.20;;;15.80;99.90;;;;;;5071637;28;19920;-56
2022/07/11 00:46:47;;;;;;;4.20;2.00;;;15.80;99.90;;;;;;5071374;28;20036;-57
2022/07/11 00:49:14;;;;;;;6.07;2.30;;;15.80;99.90;;;;;;5070260;28;20033;-57
2022/07/11 00:51:41;;;;;;;4.50;2.70;;;16.00;99.90;;;;;;5071280;28;20501;-56
2022/07/11 00:54:14;;;;;;;4.88;2.42;;;16.00;99.90;;;;;;5071162;28;20044;-57
2022/07/11 00:56:42;;;;;;;3.35;1.80;;;16.00;99.90;;;;;;5071181;28;20074;-56
2022/07/11 00:59:09;;;;;;;3.85;2.03;;;15.80;99.90;;;;;;5071430;28;20226;-57
2022/07/11 01:01:39;;;;;;;3.00;1.83;;;16.00;99.90;;;;;;5069819;28;20056;-56
2022/07/11 01:04:05;;;;;;;4.63;2.15;;;16.00;99.90;;;;;;5073847;28;20040;-56
2022/07/11 01:06:32;;;;;;;2.72;2.05;;;15.90;99.90;;;;;;5075049;28;20082;-57
2022/07/11 01:09:00;;;;;;;4.05;2.33;;;15.80;99.90;;;;;;5075046;28;20033;-56
2022/07/11 01:11:31;;;;;;;5.00;2.13;;;15.90;99.90;;;;;;5075450;28;20063;-57
2022/07/11 01:13:59;;;;;;;3.17;1.83;;;15.90;99.90;;;;;;5074833;28;20041;-57
2022/07/11 01:16:30;;;;;;;4.05;2.15;;;15.80;99.90;;;;;;5074811;28;20051;-58
2022/07/11 01:18:57;;;;;;;4.60;2.15;;;16.00;99.90;;;;;;5074972;28;20129;-57
2022/07/11 01:21:26;;;;;;;4.90;2.30;;;15.90;99.90;;;;;;5074369;28;20093;-57
2022/07/11 01:23:56;;;;;;;5.85;2.58;;;15.90;99.90;;;;;;5075086;28;20036;-57
2022/07/11 01:26:24;;;;;;;2.67;1.92;;;15.90;99.90;;;;;;5074867;28;20045;-57
2022/07/11 01:28:55;;;;;;;3.28;2.17;;;15.80;99.90;;;;;;5074943;28;20032;-57
2022/07/11 01:31:21;;;;;;;;;;;15.70;99.90;;;;;;5075177;28;20047;-58
2022/07/11 01:33:49;;;;;;;2.85;2.10;;;15.90;99.90;;;;;;5074351;28;20352;-57
2022/07/11 01:36:17;;;;;;;5.38;3.22;;;15.90;99.90;;;;;;5074565;28;20044;-57
2022/07/11 01:38:44;;;;;;;4.93;2.65;;;15.70;99.90;;;;;;5074779;28;20060;-57
2022/07/11 01:41:16;;;;;;;5.45;2.67;;;15.90;99.90;;;;;;5074189;28;20048;-57
2022/07/11 01:43:44;;;;;;;3.65;2.40;;;15.80;99.90;;;;;;5074459;28;20048;-57
2022/07/11 01:49:51;;;;;;;4.43;2.75;;;15.90;99.90;;;;;;5074170;28;20150;-57
2022/07/11 01:52:18;;;;;;;6.20;2.28;;;15.80;99.90;;;;;;5074365;28;20045;-57
2022/07/11 01:54:44;;;;;;;4.40;2.45;;;15.80;99.90;;;;;;5073088;28;20058;-56
2022/07/11 01:57:11;;;;;;;5.05;2.45;;;15.80;99.90;;;;;;5074253;28;20433;-57
2022/07/11 01:59:38;;;;;;;3.97;2.45;;;16.00;99.90;;;;;;5073927;28;20040;-58
2022/07/11 02:02:07;;;;;;;5.20;2.28;;;15.90;99.90;;;;;;5072198;28;20044;-57
2022/07/11 02:04:33;;;;;;;3.05;2.50;;;15.80;99.90;;;;;;5074226;28;20036;-57
2022/07/11 02:07:00;;;;;;;3.25;2.38;;;15.80;99.90;;;;;;5072727;28;20407;-57
2022/07/11 02:09:28;;;;;;;5.57;2.53;;;15.90;99.90;;;;;;5072356;28;20434;-57
2022/07/11 02:11:54;;;;;;;3.20;2.20;;;15.90;99.90;;;;;;5074118;28;20042;-56
2022/07/11 02:14:21;;;;;;;3.70;2.05;;;15.80;99.90;;;;;;5073543;28;20032;-56
2022/07/11 02:16:49;;;;;;;4.82;2.50;;;15.70;99.90;;;;;;5073695;28;20047;-57
2022/07/11 02:19:18;;;;;;;4.18;2.20;;;15.80;99.90;;;;;;5073644;28;20044;-56
2022/07/11 02:21:47;;;;;;;4.85;2.25;;;15.70;99.90;;;;;;5073694;28;20045;-56
2022/07/11 02:24:15;;;;;;;5.97;2.40;;;15.90;99.90;;;;;;5071571;28;20049;-56
2022/07/11 02:26:45;;;;;;;3.95;2.63;;;15.90;99.90;;;;;;5071628;28;20053;-56
2022/07/11 02:29:12;;;;;;;3.92;2.25;;;15.90;99.90;;;;;;5073461;28;20120;-57
2022/07/11 02:31:39;;;;;;;8.60;2.50;;;15.80;99.90;;;;;;5073446;28;20044;-58
2022/07/11 02:34:05;;;;;;;3.90;2.40;;;15.90;99.90;;;;;;5073532;28;20032;-57
2022/07/11 02:36:34;;;;;;;;;;;15.70;99.90;;;;;;5073816;28;20123;-57
2022/07/11 02:39:01;;;;;;;4.15;2.53;;;15.90;99.90;;;;;;5073478;28;20002;-57
2022/07/11 02:41:29;;;;;;;3.60;2.45;;;15.90;99.90;;;;;;5073107;28;20522;-57
2022/07/11 02:43:57;;;;;;;5.45;2.75;;;15.70;99.90;;;;;;5073066;28;20059;-57
2022/07/11 02:46:25;;;;;;;9.50;3.05;;;15.60;99.90;;;;;;5073102;28;20044;-57
2022/07/11 02:52:33;;;;;;;5.13;2.53;;;15.90;99.90;;;;;;5073063;28;20583;-56
2022/07/11 02:55:01;;;;;;;4.22;2.83;;;15.80;99.90;;;;;;5071833;28;20036;-57
2022/07/11 02:57:27;;;;;;;3.30;2.25;;;15.70;99.90;;;;;;5072852;28;20044;-56
2022/07/11 02:59:53;;;;;;;5.13;2.40;;;15.70;99.90;;;;;;5073171;28;20409;-56
2022/07/11 03:02:21;;;;;;;4.40;2.30;;;15.60;99.90;;;;;;5072791;28;20170;-56
2022/07/11 03:04:51;;;;;;;3.00;2.03;;;15.60;99.90;;;;;;5072867;28;20487;-56
2022/07/11 03:07:22;;;;;;;4.57;2.55;;;15.60;99.90;;;;;;5072677;28;20058;-56
2022/07/11 03:09:49;;;;;;;6.68;2.65;;;15.60;99.90;;;;;;5072684;28;20033;-56
2022/07/11 03:12:17;;;;;;;5.10;2.67;;;15.70;99.90;;;;;;5072592;28;20518;-56
2022/07/11 03:14:43;;;;;;;9.80;2.40;;;15.80;99.90;;;;;;5072655;28;20074;-56
2022/07/11 03:17:11;;;;;;;5.43;2.90;;;15.80;99.90;;;;;;5072473;28;20036;-56
2022/07/11 03:19:38;;;;;;;4.13;2.40;;;15.80;99.90;;;;;;5071564;28;20088;-57
2022/07/11 03:22:05;;;;;;;3.80;2.30;;;15.60;99.90;;;;;;5072484;28;20074;-57
2022/07/11 03:24:31;;;;;;;3.58;2.33;;;15.80;99.90;;;;;;5070638;28;20439;-56
2022/07/11 03:27:00;;;;;;;5.32;2.50;;;15.70;99.90;;;;;;5071894;28;20040;-56
2022/07/11 03:29:28;;;;;;;6.57;2.22;;;15.70;99.90;;;;;;5072340;28;20529;-56
2022/07/11 03:35:40;;;;;;;4.10;2.55;;;15.80;99.90;;;;;;5072264;28;20047;-56
2022/07/11 03:38:08;;;;;;;9.75;2.80;;;15.90;99.90;;;;;;5072657;28;20044;-57
2022/07/11 03:40:38;;;;;;;3.03;2.43;;;15.60;99.90;;;;;;5072419;28;20068;-57
2022/07/11 03:43:04;;;;;;;3.35;1.90;;;15.80;99.90;;;;;;5072119;28;20357;-56
2022/07/11 03:45:31;;;;;;;5.85;2.63;;;15.90;99.90;;;;;;5072106;28;20554;-56
2022/07/11 03:47:58;;;;;;;6.72;1.90;;;15.90;99.90;;;;;;5072290;28;20070;-56
2022/07/11 03:50:24;;;;;;;6.68;2.00;;;15.80;99.90;;;;;;5072045;28;20055;-57
2022/07/11 03:52:56;;;;;;;1.90;1.48;;;15.80;99.90;;;;;;5072417;28;20047;-56
2022/07/11 03:55:23;;;;;;;3.95;1.40;;;15.60;99.90;;;;;;5072075;28;20090;-57
2022/07/11 03:57:49;;;;;;;2.75;1.10;;;15.80;99.90;;;;;;5071843;28;20036;-56
2022/07/11 04:00:19;;;;;;;2.25;1.40;;;15.70;99.90;;;;;;5072173;28;20032;-57
2022/07/11 04:02:46;;;;;;;;;;;15.80;99.90;;;;;;5072143;28;20494;-57
2022/07/11 04:05:13;;;;;;;2.30;0.93;;;15.90;99.90;;;;;;5071906;28;20011;-57
2022/07/11 04:07:39;;;;;;;4.60;1.48;;;15.90;99.90;;;;;;5071850;28;20047;-56
2022/07/11 04:10:08;;;;;;;4.38;1.42;;;15.90;99.90;;;;;;5071950;28;20039;-57
2022/07/11 04:12:38;;;;;;;4.55;1.33;;;15.90;99.90;;;;;;5071590;28;20120;-56
2022/07/11 04:15:32;;;;;;;4.88;1.33;;;15.70;99.90;;;;;;5071275;28;20395;-57
2022/07/11 04:17:59;;;;;;;2.28;1.25;;;15.80;99.90;;;;;;5071901;28;20037;-56
2022/07/11 04:20:27;;;;;;;4.00;1.50;;;15.90;99.90;;;;;;5072052;28;20036;-57
2022/07/11 04:22:55;;;;;;;2.75;1.48;;;15.90;99.90;;;;;;5070472;28;20049;-56
2022/07/11 04:25:24;;;;;;;2.42;1.38;;;15.70;99.90;;;;;;5072115;28;20037;-56
2022/07/11 04:27:53;;;;;;;2.00;1.25;;;15.80;99.90;;;;;;5071590;28;20075;-57
2022/07/11 04:30:20;;;;;;;2.03;1.20;;;16.00;99.90;;;;;;5071663;28;20052;-56
2022/07/11 04:32:53;;;;;;;1.48;1.08;;;15.70;99.90;;;;;;5071728;28;20399;-57
2022/07/11 04:35:20;;;;;;;3.92;1.00;;;15.70;99.90;;;;;;5072156;28;20445;-57
2022/07/11 04:37:50;;;;;;;5.45;1.27;;;16.00;99.90;;;;;;5055329;28;20067;-56
2022/07/11 04:40:20;;;;;;;7.20;1.40;;;15.70;99.90;;;;;;5075433;28;20061;-56
2022/07/11 04:42:48;;;;;;;3.75;0.98;;;15.90;99.90;;;;;;5073931;28;20063;-57
2022/07/11 04:45:14;;;;;;;1.27;1.00;;;15.90;99.90;;;;;;5074750;28;20117;-56
2022/07/11 04:47:40;;;;;;;4.82;0.93;;;15.80;99.90;;;;;;5075762;28;20356;-57
2022/07/11 04:50:07;;;;;;;5.63;1.08;;;15.80;99.90;;;;;;5075424;28;20169;-57
2022/07/11 04:52:33;;;;;;;2.65;1.08;;;15.80;99.90;;;;;;5075755;28;20044;-58
2022/07/11 04:54:59;;;;;;;1.88;1.02;;;15.80;99.90;;;;;;5073646;28;20384;-58
2022/07/11 04:57:26;;;;;;;4.38;1.00;;;15.80;99.90;;;;;;5075494;28;20127;-57
2022/07/11 04:59:52;;;;;;;3.20;1.10;;;15.80;99.90;;;;;;5075382;28;20044;-57
2022/07/11 05:02:19;;;;;;;5.05;1.23;;;15.90;99.90;;;;;;5075180;28;20044;-56
2022/07/11 05:04:45;;;;;;;3.25;1.00;;;16.00;99.90;;;;;;5075015;28;20037;-57
2022/07/11 05:07:15;;;;;;;1.33;0.90;;;16.00;99.90;;;;;;5075091;28;20098;-57
2022/07/11 05:09:44;;;;;;;2.30;1.00;;;15.90;99.90;;;;;;5075085;28;20041;-58
2022/07/11 05:12:10;;;;;;;3.20;0.80;;;16.10;99.90;;;;;;5075181;28;20085;-56
2022/07/11 05:14:37;;;;;;;3.78;0.93;;;16.10;99.90;;;;;;5075231;28;20375;-57
2022/07/11 05:17:03;;;;;;;5.38;1.38;;;16.10;99.90;;;;;;5074209;28;20055;-56
2022/07/11 05:20:22;;;;;;;1.67;1.00;;;16.20;99.90;;;;;;5074961;28;20079;-57
2022/07/11 05:22:48;;;;;;;2.05;0.80;;;16.20;99.90;;;;;;5054742;28;20475;-56
2022/07/11 05:25:14;;;;;;;1.50;0.73;;;16.10;99.90;;;;;;5054838;28;20047;-57
2022/07/11 05:27:40;;;;;;;2.42;0.95;;;16.20;99.90;;;;;;5054776;28;20156;-56
2022/07/11 05:30:08;;;;;;;0.75;0.70;;;16.10;99.90;;;;;;5054982;28;20479;-57
2022/07/11 05:32:35;;;;;;;4.07;0.60;;;16.10;99.90;;;;;;5054859;28;20034;-57
2022/07/11 05:35:03;;;;;;;2.75;0.70;;;16.10;99.90;;;;;;5055116;28;20095;-56
2022/07/11 05:37:29;;;;;;;2.05;0.88;;;16.10;99.90;;;;;;5054707;28;20115;-56
2022/07/11 05:39:55;;;;;;;2.45;0.95;;;16.10;99.90;;;;;;5054406;28;20443;-56
2022/07/11 05:42:21;;;;;;;2.88;0.90;;;16.20;99.90;;;;;;5054811;28;20048;-57
2022/07/11 05:44:49;;;;;;;1.73;0.80;;;16.30;99.90;;;;;;5053475;28;20053;-56
2022/07/11 05:47:15;;;;;;;5.77;1.33;;;16.20;99.90;;;;;;5054737;28;20062;-57
2022/07/11 05:49:43;;;;;;;3.38;1.15;;;16.30;99.90;;;;;;5053584;28;20029;-56
2022/07/11 05:52:10;;;;;;;2.63;1.23;;;16.30;99.90;;;;;;5054473;28;20041;-58
2022/07/11 05:54:36;;;;;;;5.35;1.25;;;16.40;99.90;;;;;;5054311;28;20064;-56
2022/07/11 05:57:05;;;;;;;3.65;1.10;;;16.30;99.90;;;;;;5054426;28;20044;-57
2022/07/11 05:59:32;;;;;;;3.92;1.17;;;16.40;99.90;;;;;;5054400;28;20494;-58
2022/07/11 06:02:02;;;;;;;3.85;1.98;;;16.20;99.90;;;;;;5054351;28;20079;-57
2022/07/11 06:04:28;;;;;;;2.83;0.93;;;16.40;99.90;;;;;;5053996;28;20098;-57
2022/07/11 06:06:55;;;;;;;4.93;1.17;;;16.30;99.90;;;;;;5053940;28;20045;-57
2022/07/11 06:09:21;;;;;;;1.80;0.90;;;16.30;99.90;;;;;;5053794;28;20029;-57
2022/07/11 06:11:53;;;;;;;2.88;0.70;;;16.30;99.90;;;;;;5053907;28;20498;-57
2022/07/11 06:14:24;;;;;;;2.45;0.85;;;16.40;99.90;;;;;;5052449;28;20130;-58
2022/07/11 06:16:54;;;;;;;4.25;1.08;;;16.70;99.90;;;;;;5053774;28;20144;-57
2022/07/11 06:19:25;;;;;;;3.13;1.20;;;16.60;99.90;;;;;;5053345;28;20045;-58
2022/07/11 06:21:55;;;;;;;2.20;0.90;;;16.60;99.90;;;;;;5053561;28;20041;-57
2022/07/11 06:24:30;;;;;;;1.90;0.85;;;16.90;99.90;;;;;;5053532;28;20036;-58
2022/07/11 06:27:03;;;;;;;2.22;0.70;;;16.70;99.90;;;;;;5053815;28;20048;-57
2022/07/11 06:29:30;;;;;;;3.13;0.90;;;17.00;99.90;;;;;;5053856;28;20083;-57
2022/07/11 06:31:56;;;;;;;2.55;0.70;;;16.90;99.90;;;;;;5085340;28;20045;-57
2022/07/11 06:34:22;;;;;;;3.13;0.65;;;17.00;99.90;;;;;;5053556;28;20045;-57
2022/07/11 06:36:50;;;;;;;2.40;0.70;;;16.90;99.90;;;;;;5053466;28;20070;-57
2022/07/11 06:39:17;;;;;;;0.77;0.60;;;16.90;99.90;;;;;;5053625;28;20066;-57
2022/07/11 06:41:47;;;;;;;2.63;0.63;;;16.80;99.90;;;;;;5053162;28;20061;-57
2022/07/11 06:44:18;;;;;;;1.15;0.60;;;16.70;99.90;;;;;;5053247;28;20086;-56
2022/07/11 06:46:53;;;;;;;1.70;0.60;;;16.70;99.90;;;;;;5053322;28;20041;-57
2022/07/11 06:49:24;;;;;;;4.57;1.10;;;16.80;99.90;;;;;;5053198;28;20510;-58
2022/07/11 06:51:54;;;;;;;2.53;1.00;;;17.00;99.90;;;;;;5053203;28;20089;-56
2022/07/11 06:54:25;;;;;;;0.77;0.50;;;17.00;99.90;;;;;;5053126;28;20048;-57
2022/07/11 06:56:56;;;;;;;1.13;0.88;;;17.00;99.90;;;;;;5053097;28;20041;-57
2022/07/11 06:59:27;;;;;;;0.98;0.55;;;17.10;99.90;;;;;;5053057;28;20562;-57
2022/07/11 07:01:57;;;;;;;1.17;0.55;;;17.20;99.90;;;;;;5050660;28;20491;-57
2022/07/11 07:04:26;;;;;;;1.67;0.93;;;17.10;99.90;;;;;;5052975;28;20503;-57
2022/07/11 07:06:56;;;;;;;2.75;0.95;;;17.00;99.90;;;;;;5052927;28;20037;-57
2022/07/11 07:09:28;;;;;;;2.58;0.70;;;17.00;99.90;;;;;;5052771;28;20450;-57
2022/07/11 07:11:57;;;;;;;1.60;0.63;;;17.00;99.90;;;;;;5052727;28;20056;-57
2022/07/11 07:14:27;;;;;;;1.77;0.88;;;17.10;99.90;;;;;;5051682;28;20041;-56
2022/07/11 07:16:56;;;;;;;;;;;17.30;99.90;;;;;;5053198;28;20102;-55
2022/07/11 07:19:22;;;;;;;4.10;1.30;;;17.30;99.90;;;;;;5053531;28;20290;-56
2022/07/11 07:21:55;;;;;;;2.75;1.10;;;17.30;99.90;;;;;;5089430;27;20397;-56
2022/07/11 07:24:22;;;;;;;1.20;1.02;;;17.30;99.90;;;;;;5089652;28;20032;-58
2022/07/11 07:26:49;;;;;;;1.45;0.80;;;17.40;99.90;;;;;;5089556;28;20037;-57
2022/07/11 07:29:15;;;;;;;5.80;1.10;;;17.20;99.90;;;;;;5089296;28;20498;-56
2022/07/11 07:31:42;;;;;;;2.85;1.02;;;17.40;99.90;;;;;;5089186;28;20051;-56
2022/07/11 07:34:09;;;;;;;3.10;0.98;;;17.30;99.90;;;;;;5089053;28;20073;-57
2022/07/11 07:36:36;;;;;;;3.22;0.88;;;17.20;99.90;;;;;;5087383;28;20060;-56
2022/07/11 07:39:05;;;;;;;2.60;0.88;;;17.30;99.90;;;;;;5088800;28;20044;-56
2022/07/11 07:41:32;;;;;;;0.98;0.40;;;17.60;99.90;;;;;;5088822;28;20043;-56
2022/07/11 07:43:59;;;;;;;2.50;0.80;;;17.70;99.90;;;;;;5088971;28;20044;-56
2022/07/11 07:46:25;;;;;;;1.60;0.80;;;18.00;99.90;;;;;;5088888;28;20393;-57
2022/07/11 07:48:52;;;;;;;2.35;0.90;;;18.00;99.90;;;;;;5088709;28;20036;-57
2022/07/11 07:51:17;;;;;;;1.05;0.52;;;18.00;99.90;;;;;;5088748;28;20048;-57
2022/07/11 07:53:44;;;;;;;2.67;0.70;;;18.10;99.90;;;;;;5088898;28;20048;-56
2022/07/11 07:56:10;;;;;;;1.40;0.73;;;18.10;99.90;;;;;;5087265;28;20093;-57
2022/07/11 07:58:36;;;;;;;3.30;0.70;;;18.20;99.90;;;;;;5088950;28;20033;-57
2022/07/11 08:03:47;;;;;;;3.13;0.63;;;18.10;99.90;;;;;;5088863;28;20036;-57
2022/07/11 08:06:25;;;;;;;0.80;0.25;;;18.30;99.90;;;;;;5088869;28;20151;-57
2022/07/11 08:08:52;;;;;;;0.60;0.40;;;18.50;99.90;;;;;;5088401;28;20071;-58
2022/07/11 08:11:18;;;;;;;1.60;0.95;;;18.50;99.90;;;;;;5088501;28;20075;-57
2022/07/11 08:13:44;;;;;;;0.43;0.20;;;18.80;99.90;;;;;;5088504;28;20050;-57
2022/07/11 08:16:10;;;;;;;0.52;0.30;;;18.70;99.90;;;;;;5088376;28;20040;-56
2022/07/11 08:18:36;;;;;;;0.65;0.63;;;18.60;99.90;;;;;;5088386;28;20482;-57
2022/07/11 08:21:03;;;;;;;0.30;0.30;;;18.80;99.90;;;;;;5087894;28;20089;-57
2022/07/11 08:23:29;;;;;;;1.52;0.65;;;18.90;99.90;;;;;;5088425;28;20387;-56
2022/07/11 08:25:56;;;;;;;0.75;0.20;;;19.30;99.90;;;;;;5087124;28;20102;-57
2022/07/11 08:28:23;;;;;;;0.60;0.20;;;19.10;99.90;;;;;;5087996;28;20039;-56
2022/07/11 08:30:49;;;;;;;1.67;0.20;;;19.00;99.90;;;;;;5088110;28;20485;-56
2022/07/11 08:33:15;;;;;;;1.98;0.60;;;19.00;99.90;;;;;;5074651;28;20040;-57
2022/07/11 08:35:42;;;;;;;2.40;0.35;;;19.00;99.90;;;;;;5074426;28;20083;-57
2022/07/11 08:38:08;;;;;;;0.52;0.30;;;18.90;99.90;;;;;;5074459;28;20047;-57
2022/07/11 08:40:35;;;;;;;0.30;0.25;;;18.90;99.90;;;;;;5074418;28;20371;-58
2022/07/11 08:43:05;;;;;;;0.38;0.38;;;18.80;99.90;;;;;;5074379;28;20486;-56
2022/07/11 08:45:32;;;;;;;0.55;0.40;;;18.70;99.90;;;;;;5074250;28;20475;-57
2022/07/11 08:48:10;;;;;;;0.17;0.15;;;18.70;99.90;;;;;;5074270;28;20086;-57
2022/07/11 08:50:38;;;;;;;0.25;0.20;;;18.60;99.90;;;;;;5074540;28;20182;-57
2022/07/11 08:53:05;;;;;;;1.23;0.20;;;18.60;99.90;;;;;;5072563;28;20550;-57
2022/07/11 08:55:31;;;;;;;0.45;0.20;;;18.90;99.90;;;;;;5074108;28;20040;-55
2022/07/11 08:57:58;;;;;;;0.35;0.10;;;19.50;99.90;;;;;;5073862;28;20539;-56
2022/07/11 09:00:26;;;;;;;0.13;0.13;;;20.10;99.90;;;;;;5073769;28;20486;-56
2022/07/11 09:02:53;;;;;;;0.10;0.10;;;20.40;99.90;;;;;;5074023;28;20495;-57
2022/07/11 09:05:21;;;;;;;0.35;0.20;;;20.30;99.90;;;;;;5072581;28;20237;-56
2022/07/11 09:07:48;;;;;;;2.10;0.20;;;20.10;99.90;;;;;;5073806;28;20577;-56
2022/07/11 09:10:17;;;;;;;0.30;0.10;;;19.90;99.90;;;;;;5074009;28;20471;-56
2022/07/11 09:13:06;;;;;;;0.30;0.10;;;19.90;99.90;;;;;;5074030;28;20554;-56
2022/07/11 09:15:46;;;;;;;0.68;0.43;;;19.80;99.90;;;;;;5074009;28;20044;-58
2022/07/11 09:18:38;;;;;;;0.50;0.10;;;19.60;99.90;;;;;;5073669;28;20502;-56
2022/07/11 09:26:52;;;;;;;0.50;0.25;;;19.40;99.90;;;;;;5073583;28;20464;-57
2022/07/11 09:29:27;;;;;;;0.20;0.10;;;19.30;99.90;;;;;;5073350;28;20051;-57
2022/07/11 09:31:54;;;;;;;0.52;0.20;;;19.20;99.90;;;;;;5073605;28;20051;-57
2022/07/11 09:34:23;;;;;;;0.95;0.30;;;19.10;99.90;;;;;;5073340;28;20596;-57
2022/07/11 09:36:54;;;;;;;1.75;0.30;;;19.10;99.90;;;;;;5073356;28;20505;-57
2022/07/11 09:39:23;;;;;;;0.35;0.30;;;19.00;99.90;;;;;;5073402;28;20049;-57
2022/07/11 09:41:53;;;;;;;0.60;0.20;;;19.00;99.90;;;;;;5073394;28;20437;-57
2022/07/11 09:44:24;;;;;;;0.45;0.20;;;19.00;99.90;;;;;;5072511;28;20032;-57
2022/07/11 09:46:52;;;;;;;0.10;0.10;;;19.00;99.90;;;;;;5073190;28;20408;-57
2022/07/11 09:49:32;;;;;;;;;;;19.00;99.90;;;;;;5073478;28;20402;-57
2022/07/11 09:52:15;;;;;;;1.58;0.30;;;18.80;99.90;;;;;;5073043;28;20337;-55
2022/07/11 09:55:00;;;;;;;0.68;0.25;;;18.60;99.90;;;;;;5072795;28;20616;-57
2022/07/11 09:57:36;;;;;;;2.92;0.47;;;18.50;99.90;;;;;;5073101;28;20395;-56
2022/07/11 10:00:06;;;;;;;1.98;0.47;;;18.50;99.90;;;;;;5072784;28;20048;-58
2022/07/11 10:02:36;;;;;;;1.95;0.15;;;18.50;99.90;;;;;;5072879;28;20032;-56
2022/07/11 10:05:04;;;;;;;0.75;0.10;;;18.50;99.90;;;;;;5072836;28;20040;-57
2022/07/11 10:07:31;;;;;;;1.73;0.30;;;18.50;99.90;;;;;;5072665;28;20032;-57
2022/07/11 10:10:52;;;;;;;0.68;0.10;;;18.60;99.90;;;;;;5072692;28;20047;-55
2022/07/11 10:13:20;;;;;;;1.75;0.52;;;18.60;99.90;;;;;;5072780;28;20045;-56
2022/07/11 10:15:50;;;;;;;0.73;0.30;;;18.60;99.90;;;;;;5072720;28;20052;-56
2022/07/11 10:18:35;;;;;;;0.35;0.22;;;18.70;99.90;;;;;;5071330;28;20049;-57
2022/07/11 10:21:15;;;;;;;0.65;0.30;;;18.70;99.90;;;;;;5072311;28;20052;-57
2022/07/11 10:23:54;;;;;;;0.30;0.22;;;18.70;99.90;;;;;;5072158;28;20083;-57
2022/07/11 10:26:50;;;;;;;0.70;0.30;;;18.90;99.90;;;;;;5072337;28;20036;-56
2022/07/11 10:29:24;;;;;;;0.20;0.20;;;19.00;99.90;;;;;;5072220;28;20111;-56
2022/07/11 10:32:08;;;;;;;1.52;0.20;;;18.90;99.90;;;;;;5072278;28;20573;-57
2022/07/11 10:34:36;;;;;;;0.52;0.20;;;19.00;99.90;;;;;;5072449;28;20040;-57
2022/07/11 10:37:04;;;;;;;0.70;0.50;;;19.00;99.90;;;;;;5072117;28;20044;-57
2022/07/11 10:39:34;;;;;;;1.10;0.40;;;19.00;99.90;;;;;;5072289;28;20063;-56
2022/07/11 10:42:05;;;;;;;0.82;0.40;;;19.00;99.90;;;;;;5072078;28;20072;-57
2022/07/11 10:44:56;;;;;;;0.47;0.40;;;19.10;99.90;;;;;;5071786;28;20593;-57
2022/07/11 10:47:38;;;;;;;0.40;0.40;;;19.00;99.90;;;;;;5072082;28;20089;-56
2022/07/11 10:50:24;;;;;;;1.33;0.43;;;19.00;99.90;;;;;;5071913;28;20040;-56
2022/07/11 10:53:00;;;;;;;1.65;0.80;;;19.10;99.90;;;;;;5071621;28;20040;-57
2022/07/11 10:55:46;;;;;;;2.20;0.55;;;19.10;99.90;;;;;;5071790;28;20087;-56
2022/07/11 10:58:27;;;;;;;1.33;0.57;;;19.10;99.90;;;;;;5071872;28;20123;-56
2022/07/11 11:01:17;;;;;;;1.85;0.60;;;19.10;99.90;;;;;;5071754;28;20111;-58
2022/07/11 11:03:49;;;;;;;;;;;19.10;99.90;;;;;;5072235;28;20044;-57
2022/07/11 11:06:40;;;;;;;1.20;0.50;;;19.30;99.90;;;;;;5071945;28;20020;-57
2022/07/11 11:09:39;;;;;;;1.08;0.50;;;19.30;99.90;;;;;;5071238;28;20048;-57
2022/07/11 11:12:11;;;;;;;0.57;0.20;;;19.30;99.90;;;;;;5070719;28;20032;-56
2022/07/11 11:14:42;;;;;;;2.20;0.40;;;19.30;99.90;;;;;;5071724;28;20048;-56
2022/07/11 11:17:35;;;;;;;0.85;0.20;;;19.40;99.90;;;;;;5071737;28;20033;-56
2022/07/11 11:20:06;;;;;;;1.17;0.30;;;19.40;99.90;;;;;;5071252;28;20053;-57
2022/07/11 11:22:39;;;;;;;0.50;0.20;;;19.40;99.90;;;;;;5072036;28;20070;-57
2022/07/11 11:25:09;;;;;;;0.15;0.05;;;19.60;99.90;;;;;;5071737;28;20112;-56
2022/07/11 11:27:57;;;;;;;1.50;0.13;;;19.60;99.90;;;;;;5072024;28;20429;-57
2022/07/11 11:30:25;;;;;;;1.92;0.30;;;19.60;99.90;;;;;;5070007;28;20089;-57
2022/07/11 11:32:53;;;;;;;0.68;0.32;;;19.60;99.90;;;;;;5071762;28;20076;-57
2022/07/11 11:35:23;;;;;;;0.43;0.20;;;19.60;99.90;;;;;;5071673;28;20047;-57
2022/07/11 11:37:55;;;;;;;1.58;0.30;;;19.60;99.90;;;;;;5071419;28;20094;-57
2022/07/11 11:40:24;;;;;;;0.30;0.20;;;19.60;99.90;;;;;;5069678;28;20044;-57
2022/07/11 11:42:51;;;;;;;1.47;0.30;;;19.60;99.90;;;;;;5070557;28;20049;-58
2022/07/11 11:45:21;;;;;;;0.40;0.20;;;19.50;99.90;;;;;;5069758;28;20279;-57
2022/07/11 11:47:50;;;;;;;1.27;0.20;;;19.40;99.90;;;;;;5071466;28;20047;-57
2022/07/11 11:50:18;;;;;;;0.77;0.20;;;19.40;99.90;;;;;;5071557;28;20470;-56
2022/07/11 11:53:13;;;;;;;0.30;0.30;;;19.40;99.90;;;;;;5071203;28;20072;-57
2022/07/11 11:55:43;;;;;;;0.73;0.30;;;19.50;99.90;;;;;;5070030;28;20060;-57
2022/07/11 11:58:12;;;;;;;0.40;0.40;;;19.40;99.90;;;;;;5071065;28;20041;-56
2022/07/11 12:00:53;;;;;;;1.52;0.70;;;19.40;99.90;;;;;;5071346;28;20095;-57
2022/07/11 12:03:23;;;;;;;1.38;0.50;;;19.50;99.90;;;;;;5071297;28;20032;-56
2022/07/11 12:05:55;;;;;;;0.55;0.55;;;19.40;99.90;;;;;;5071249;28;20041;-56
2022/07/11 12:08:29;;;;;;;4.80;0.95;;;19.40;99.90;;;;;;5074409;28;20134;-56
2022/07/11 12:10:57;;;;;;;5.05;0.40;;;19.30;99.90;;;;;;5074824;28;20083;-57
2022/07/11 12:17:05;;;;;;;2.83;0.60;;;19.40;99.90;;;;;;5074954;28;20035;-56
2022/07/11 12:19:36;;;;;;;1.63;0.30;;;19.40;99.90;;;;;;5074530;28;20044;-57
2022/07/11 12:22:05;;;;;;;1.48;0.60;;;19.40;99.90;;;;;;5074833;28;20779;-57
2022/07/11 12:24:37;;;;;;;1.67;0.50;;;19.50;99.90;;;;;;5075123;28;20047;-57
2022/07/11 12:27:09;;;;;;;1.85;0.55;;;19.60;99.90;;;;;;5074484;28;20049;-57
2022/07/11 12:29:41;;;;;;;0.82;0.30;;;19.60;99.90;;;;;;5074301;28;20032;-57
2022/07/11 12:32:13;;;;;;;1.08;0.32;;;19.60;99.90;;;;;;5073802;28;20059;-58
2022/07/11 12:34:44;;;;;;;0.98;0.30;;;19.60;99.90;;;;;;5074628;28;20101;-57
2022/07/11 12:37:14;;;;;;;1.92;0.60;;;19.60;99.90;;;;;;5074540;28;20372;-57
2022/07/11 12:39:56;;;;;;;0.22;0.20;;;19.60;99.90;;;;;;5074383;28;20111;-57
2022/07/11 12:42:32;;;;;;;1.20;0.30;;;19.60;99.90;;;;;;5074256;28;20047;-57
2022/07/11 12:45:09;;;;;;;0.80;0.50;;;19.60;99.90;;;;;;5074224;28;20086;-56
2022/07/11 12:47:37;;;;;;;1.55;0.45;;;19.50;99.90;;;;;;5074362;28;20029;-56
2022/07/11 12:50:27;;;;;;;8.07;0.73;;;19.60;99.90;;;;;;5074531;28;20037;-56
2022/07/11 12:53:01;;;;;;;0.40;0.40;;;19.50;99.90;;;;;;5073044;28;20044;-57
2022/07/11 12:55:34;;;;;;;0.70;0.20;;;19.50;99.90;;;;;;5074200;28;20044;-56
2022/07/11 12:58:09;;;;;;;2.92;0.40;;;19.50;99.90;;;;;;5074154;28;20036;-56
2022/07/11 13:00:42;;;;;;;0.38;0.30;;;19.60;99.90;;;;;;5074064;28;20072;-57
2022/07/11 13:03:12;;;;;;;0.70;0.40;;;19.60;99.90;;;;;;5074015;28;20036;-57
2022/07/11 13:05:51;;;;;;;2.80;0.73;;;19.60;99.90;;;;;;5073675;28;20044;-57
2022/07/11 13:11:17;;;;;;;0.80;0.45;;;19.60;99.90;;;;;;5073821;28;20120;-56
2022/07/11 13:13:47;;;;;;;0.98;0.40;;;19.70;99.90;;;;;;5073916;28;20402;-57
2022/07/11 13:16:16;;;;;;;2.00;0.50;;;19.80;99.90;;;;;;5073914;28;20040;-56
2022/07/11 13:18:46;;;;;;;0.47;0.40;;;19.90;99.90;;;;;;5073581;28;20044;-57
2022/07/11 13:21:17;;;;;;;4.35;0.65;;;19.90;99.90;;;;;;5073267;28;20127;-56
2022/07/11 13:23:47;;;;;;;0.80;0.38;;;19.80;99.90;;;;;;5073511;28;20040;-57
2022/07/11 13:26:13;;;;;;;1.05;0.47;;;19.60;99.90;;;;;;5073551;28;20037;-56
2022/07/11 13:28:42;;;;;;;1.33;0.50;;;19.70;99.90;;;;;;5073424;28;20043;-56
2022/07/11 13:31:08;;;;;;;0.60;0.50;;;19.70;99.90;;;;;;5073484;28;20048;-57